createdAt,value
2022-08-05T00:01:27.613Z,18.68
2022-08-05T00:06:33.348Z,18.60
2022-08-05T00:11:48.315Z,18.57
2022-08-05T00:16:52.756Z,18.56
2022-08-05T00:21:55.670Z,18.54
2022-08-05T00:26:57.648Z,18.42
2022-08-05T00:32:12.154Z,18.29
2022-08-05T00:37:16.688Z,18.21
2022-08-05T00:42:39.838Z,18.17
2022-08-05T00:47:56.570Z,18.08
2022-08-05T00:52:59.392Z,18.02
2022-08-05T00:58:01.369Z,17.95
2022-08-05T01:03:03.287Z,17.87
2022-08-05T01:08:41.410Z,17.82
2022-08-05T01:13:57.567Z,17.70
2022-08-05T01:19:14.295Z,17.70
2022-08-05T01:24:30.220Z,17.67
2022-08-05T01:29:43.055Z,17.63
2022-08-05T01:34:53.467Z,17.62
2022-08-05T01:39:58.922Z,17.55
2022-08-05T01:45:03.142Z,17.39
2022-08-05T01:50:15.283Z,17.39
2022-08-05T01:55:21.819Z,17.31
2022-08-05T02:00:30.541Z,17.26
2022-08-05T02:05:36.861Z,17.14
2022-08-05T02:11:04.813Z,16.99
2022-08-05T02:16:22.850Z,16.95
2022-08-05T02:21:30.777Z,17.11
2022-08-05T02:26:54.636Z,17.04
2022-08-05T02:31:58.140Z,17.01
2022-08-05T02:37:09.720Z,16.91
2022-08-05T02:42:12.048Z,16.75
2022-08-05T02:47:58.427Z,16.84
2022-08-05T02:52:53.795Z,16.79
2022-08-05T02:58:09.881Z,16.77
2022-08-05T03:03:20.613Z,16.87
2022-08-05T03:08:29.934Z,16.81
2022-08-05T03:13:51.212Z,16.73
2022-08-05T03:18:53.806Z,16.64
2022-08-05T03:23:57.830Z,16.60
2022-08-05T03:29:00.193Z,16.58
2022-08-05T03:34:04.239Z,16.66
2022-08-05T03:39:12.985Z,16.64
2022-08-05T03:44:22.093Z,16.67
2022-08-05T03:49:30.792Z,16.67
2022-08-05T03:55:53.957Z,16.65
2022-08-05T04:00:16.426Z,16.62
2022-08-05T04:05:19.984Z,16.62
2022-08-05T04:10:27.467Z,16.68
2022-08-05T04:15:33.152Z,16.80
2022-08-05T04:20:38.388Z,16.87
2022-08-05T04:26:00.957Z,17.03
2022-08-05T04:31:03.074Z,16.99
2022-08-05T04:36:16.193Z,17.11
2022-08-05T04:41:37.631Z,17.39
2022-08-05T04:46:40.907Z,17.68
2022-08-05T04:51:48.828Z,17.98
2022-08-05T04:57:02.307Z,18.29
2022-08-05T05:02:07.541Z,18.62
2022-08-05T05:07:29.381Z,18.98
2022-08-05T05:12:33.945Z,19.47
2022-08-05T05:17:57.083Z,20.19
2022-08-05T05:23:08.174Z,20.82
2022-08-05T05:28:22.005Z,20.90
2022-08-05T05:33:26.709Z,20.85
2022-08-05T05:38:29.601Z,20.62
2022-08-05T05:43:56.722Z,20.52
2022-08-05T05:48:53.344Z,20.77
2022-08-05T05:53:59.590Z,20.98
2022-08-05T05:59:07.006Z,20.99
2022-08-05T06:04:12.704Z,20.97
2022-08-05T06:09:18.113Z,20.73
2022-08-05T06:14:28.040Z,20.69
2022-08-05T06:19:35.001Z,20.72
2022-08-05T06:24:48.248Z,20.63
2022-08-05T06:30:05.932Z,20.85
2022-08-05T06:35:15.479Z,20.93
2022-08-05T06:40:27.999Z,21.15
2022-08-05T06:45:44.673Z,21.41
2022-08-05T06:50:56.044Z,21.87
2022-08-05T06:56:01.007Z,22.16
2022-08-05T07:01:06.884Z,22.62
2022-08-05T07:06:14.308Z,22.91
2022-08-05T07:11:17.261Z,23.31
2022-08-05T07:18:00.541Z,23.13
2022-08-05T07:22:05.052Z,23.17
2022-08-05T07:27:10.267Z,23.21
2022-08-05T07:32:12.461Z,23.54
2022-08-05T07:37:16.440Z,24.18
2022-08-05T07:42:18.787Z,24.44
2022-08-05T07:47:42.426Z,24.33
2022-08-05T07:52:44.712Z,24.29
2022-08-05T07:57:55.325Z,24.19
2022-08-05T08:03:14.569Z,24.09
2022-08-05T08:08:19.948Z,23.41
2022-08-05T08:13:29.372Z,23.40
2022-08-05T08:18:31.606Z,23.58
2022-08-05T08:24:01.768Z,23.79
2022-08-05T08:28:59.800Z,23.94
2022-08-05T08:34:18.529Z,24.19
2022-08-05T08:39:21.868Z,24.42
2022-08-05T08:45:21.422Z,25.49
2022-08-05T08:50:05.992Z,26.23
2022-08-05T08:55:19.491Z,26.19
2022-08-05T09:00:34.309Z,26.13
2022-08-05T09:05:38.752Z,26.38
2022-08-05T09:10:59.737Z,26.49
2022-08-05T09:16:02.905Z,26.55
2022-08-05T09:21:05.763Z,26.94
2022-08-05T09:26:20.815Z,27.39
2022-08-05T09:32:39.639Z,27.60
2022-08-05T09:36:55.001Z,27.30
2022-08-05T09:42:04.069Z,27.33
2022-08-05T09:47:14.214Z,27.44
2022-08-05T09:52:25.877Z,28.40
2022-08-05T09:57:35.207Z,28.34
2022-08-05T10:02:41.140Z,28.62
2022-08-05T10:08:10.873Z,29.03
2022-08-05T10:13:09.683Z,29.74
2022-08-05T10:18:19.792Z,29.95
2022-08-05T10:23:56.195Z,29.44
2022-08-05T10:28:53.279Z,30.19
2022-08-05T10:33:58.651Z,30.15
2022-08-05T10:39:11.618Z,30.44
2022-08-05T10:44:19.162Z,30.66
2022-08-05T10:49:27.604Z,30.45
2022-08-05T10:55:02.717Z,31.25
2022-08-05T11:00:19.826Z,31.94
2022-08-05T11:05:26.256Z,32.77
2022-08-05T11:10:32.599Z,32.69
2022-08-05T11:15:59.235Z,33.29
2022-08-05T11:21:11.480Z,36.06
2022-08-05T11:26:28.670Z,36.04
2022-08-05T11:31:56.968Z,37.05
2022-08-05T11:36:56.203Z,37.02
2022-08-05T11:42:02.401Z,36.67
2022-08-05T11:47:14.052Z,36.76
2022-08-05T11:52:29.722Z,38.06
2022-08-05T11:57:39.556Z,38.55
2022-08-05T12:02:55.073Z,36.96
2022-08-05T12:08:07.982Z,34.76
2022-08-05T12:13:47.430Z,33.25
2022-08-05T12:18:39.803Z,31.47
2022-08-05T12:24:07.695Z,31.38
2022-08-05T12:29:26.464Z,38.40
2022-08-05T12:34:41.112Z,42.39
2022-08-05T12:39:43.352Z,40.00
2022-08-05T12:44:50.449Z,36.43
2022-08-05T12:50:02.944Z,36.91
2022-08-05T12:55:22.953Z,38.50
2022-08-05T13:02:01.159Z,35.76
2022-08-05T13:05:50.051Z,35.57
2022-08-05T13:10:51.929Z,38.23
2022-08-05T13:15:54.634Z,37.18
2022-08-05T13:20:56.447Z,34.81
2022-08-05T13:26:01.106Z,34.94
2022-08-05T13:31:10.922Z,39.78
2022-08-05T13:36:16.528Z,39.95
2022-08-05T13:41:18.383Z,41.58
2022-08-05T13:46:44.043Z,46.16
2022-08-05T13:51:46.526Z,50.19
2022-08-05T13:56:51.067Z,51.06
2022-08-05T14:01:58.090Z,49.61
2022-08-05T14:07:12.060Z,40.91
2022-08-05T14:12:32.245Z,35.86
2022-08-05T14:17:35.120Z,35.92
2022-08-05T14:22:37.341Z,43.35
2022-08-05T14:27:40.300Z,44.35
2022-08-05T14:32:52.345Z,40.03
2022-08-05T14:37:55.637Z,36.60
2022-08-05T14:42:57.562Z,34.92
2022-08-05T14:48:04.772Z,33.83
2022-08-05T14:53:10.188Z,39.06
2022-08-05T14:58:14.020Z,42.85
2022-08-05T15:03:18.228Z,38.64
2022-08-05T15:08:57.648Z,36.64
2022-08-05T15:13:45.977Z,40.00
2022-08-05T15:18:48.485Z,42.73
2022-08-05T15:23:50.300Z,40.42
2022-08-05T15:28:53.284Z,38.78
2022-08-05T15:34:19.057Z,35.72
2022-08-05T15:40:59.881Z,34.64
2022-08-05T15:44:44.245Z,33.46
2022-08-05T15:49:59.232Z,32.87
2022-08-05T15:55:02.147Z,32.28
2022-08-05T16:00:05.840Z,31.71
2022-08-05T16:05:09.698Z,31.38
2022-08-05T16:10:13.135Z,30.43
2022-08-05T16:15:18.639Z,30.09
2022-08-05T16:20:20.642Z,29.54
2022-08-05T16:25:22.435Z,29.26
2022-08-05T16:30:36.159Z,29.15
2022-08-05T16:35:41.964Z,28.84
2022-08-05T16:40:48.126Z,28.86
2022-08-05T16:46:04.888Z,28.67
2022-08-05T16:51:15.950Z,28.30
2022-08-05T16:56:17.966Z,27.96
2022-08-05T17:01:21.686Z,27.47
2022-08-05T17:06:26.112Z,26.72
2022-08-05T17:11:29.772Z,25.82
2022-08-05T17:16:38.070Z,24.92
2022-08-05T17:21:40.420Z,24.35
2022-08-05T17:26:42.323Z,23.87
2022-08-05T17:31:58.198Z,23.22
2022-08-05T17:37:01.100Z,22.81
2022-08-05T17:42:17.295Z,22.13
2022-08-05T17:47:23.661Z,21.92
2022-08-05T17:52:25.968Z,21.73
2022-08-05T17:57:28.396Z,21.42
2022-08-05T18:02:30.268Z,21.08
2022-08-05T18:07:42.040Z,20.58
2022-08-05T18:12:44.171Z,20.13
2022-08-05T18:18:01.699Z,20.10
2022-08-05T18:23:12.273Z,20.13
2022-08-05T18:28:16.213Z,19.71
2022-08-05T18:33:22.727Z,19.53
2022-08-05T18:38:26.652Z,19.54
2022-08-05T18:43:31.625Z,19.62
2022-08-05T18:48:41.845Z,19.71
2022-08-05T18:53:50.431Z,19.70
2022-08-05T18:59:01.086Z,19.51
2022-08-05T19:04:03.372Z,19.44
2022-08-05T19:09:07.455Z,19.41
2022-08-05T19:14:37.797Z,19.49
2022-08-05T19:19:31.573Z,19.46
2022-08-05T19:24:34.475Z,19.41
2022-08-05T19:29:37.441Z,19.41
2022-08-05T19:34:40.671Z,19.46
2022-08-05T19:39:46.009Z,19.37
2022-08-05T19:44:53.605Z,19.35
2022-08-05T19:50:00.994Z,19.35
2022-08-05T19:55:07.139Z,19.26
2022-08-05T20:00:27.553Z,18.98
2022-08-05T20:05:50.387Z,19.01
2022-08-05T20:10:52.035Z,18.82
2022-08-05T20:15:56.895Z,18.85
2022-08-05T20:21:00.052Z,18.83
2022-08-05T20:26:03.046Z,18.72
2022-08-05T20:31:05.133Z,18.61
2022-08-05T20:36:07.308Z,18.55
2022-08-05T20:41:12.093Z,18.52
2022-08-05T20:46:25.722Z,18.50
2022-08-05T20:51:27.564Z,18.56
2022-08-05T20:56:40.146Z,18.56
2022-08-05T21:01:44.993Z,18.46
2022-08-05T21:06:46.934Z,18.45
2022-08-05T21:12:11.014Z,18.33
2022-08-05T21:17:12.102Z,18.35
2022-08-05T21:22:14.552Z,18.16
2022-08-05T21:27:16.650Z,17.83
2022-08-05T21:32:20.113Z,17.81
2022-08-05T21:37:22.190Z,17.91
2022-08-05T21:42:41.035Z,17.93
2022-08-05T21:47:55.940Z,17.89
2022-08-05T21:53:04.505Z,17.72
2022-08-05T21:58:06.997Z,17.64
2022-08-05T22:03:15.211Z,17.51
2022-08-05T22:08:22.047Z,17.51
2022-08-05T22:14:05.987Z,17.43
2022-08-05T22:18:49.251Z,17.30
2022-08-05T22:24:13.310Z,17.01
2022-08-05T22:29:33.051Z,16.11
2022-08-05T22:34:35.155Z,15.16
2022-08-05T22:39:38.261Z,14.68
2022-08-05T22:44:48.482Z,14.62
2022-08-05T22:50:21.400Z,14.56
2022-08-05T22:55:23.378Z,14.61
2022-08-05T23:00:26.476Z,14.65
2022-08-05T23:05:29.097Z,14.61
2022-08-05T23:10:37.740Z,14.65
2022-08-05T23:15:40.854Z,14.63
2022-08-05T23:20:43.191Z,14.67
2022-08-05T23:25:51.503Z,14.75
2022-08-05T23:30:55.596Z,14.83
2022-08-05T23:36:05.649Z,14.93
2022-08-05T23:41:12.340Z,14.97
2022-08-05T23:46:20.216Z,15.04
2022-08-05T23:51:23.408Z,14.97
2022-08-05T23:56:27.206Z,14.84
